Time;durP1;ratioP1;P1;durP2;ratioP2;P2;SDS_P1;SDS_P2;PMS_P1;PMS_P2;Temp;Humidity;BMP_temperature;BMP_pressure;BME280_temperature;BME280_humidity;BME280_pressure;Samples;Min_cycle;Max_cycle;Signal;HPM_P1;HPM_P2
2023/08/05 00:00:43;;;;;;;6.82;3.25;;;14.30;99.90;;;;;;5039302;28;20107;-62
2023/08/05 00:03:09;;;;;;;7.18;3.22;;;14.30;99.90;;;;;;5047117;28;20116;-62
2023/08/05 00:08:08;;;;;;;7.68;3.10;;;14.30;99.90;;;;;;5053553;28;20226;-66
2023/08/05 00:10:33;;;;;;;7.43;3.40;;;14.40;99.90;;;;;;5067707;28;20493;-67
2023/08/05 00:12:59;;;;;;;7.03;3.35;;;14.40;99.90;;;;;;5070212;28;20037;-66
2023/08/05 00:15:25;;;;;;;4.65;2.90;;;14.50;99.90;;;;;;5061805;28;20025;-66
2023/08/05 00:17:50;;;;;;;5.63;2.75;;;14.50;99.90;;;;;;5053647;28;20120;-67
2023/08/05 00:20:16;;;;;;;4.50;2.63;;;14.50;99.90;;;;;;5050212;28;20037;-66
2023/08/05 00:22:42;;;;;;;5.93;3.30;;;14.50;99.90;;;;;;5043027;28;20402;-66
2023/08/05 00:25:08;;;;;;;8.43;3.42;;;14.50;99.90;;;;;;5046309;28;20029;-67
2023/08/05 00:27:33;;;;;;;4.85;3.05;;;14.60;99.90;;;;;;5040310;28;20040;-66
2023/08/05 00:29:59;;;;;;;7.13;3.33;;;14.60;99.90;;;;;;5054057;28;20399;-66
2023/08/05 00:32:27;;;;;;;6.43;3.70;;;14.60;99.90;;;;;;5057626;28;20029;-67
2023/08/05 00:34:52;;;;;;;7.72;3.42;;;14.60;99.90;;;;;;5050985;28;20602;-66
2023/08/05 00:37:18;;;;;;;10.05;3.78;;;14.60;99.90;;;;;;5048851;28;20120;-66
2023/08/05 00:39:43;;;;;;;5.57;3.83;;;14.60;99.90;;;;;;5046709;28;20507;-67
2023/08/05 00:42:09;;;;;;;6.45;3.45;;;14.60;99.90;;;;;;5054137;28;20041;-67
2023/08/05 00:44:35;;;;;;;6.45;3.70;;;14.60;99.90;;;;;;5042890;28;20137;-66
2023/08/05 00:47:00;;;;;;;6.95;3.60;;;14.60;99.90;;;;;;5031051;28;20086;-67
2023/08/05 00:49:26;;;;;;;9.80;3.55;;;14.70;99.90;;;;;;5044731;28;20044;-66
2023/08/05 00:51:53;;;;;;;5.63;3.22;;;14.60;99.90;;;;;;5054400;28;20036;-66
2023/08/05 00:54:20;;;;;;;8.82;3.80;;;14.70;99.90;;;;;;5052514;28;20044;-66
2023/08/05 00:56:46;;;;;;;7.55;3.47;;;14.70;99.90;;;;;;5056954;28;20049;-66
2023/08/05 00:59:12;;;;;;;5.45;3.13;;;14.70;99.90;;;;;;5048734;28;20040;-66
2023/08/05 01:01:38;;;;;;;10.93;3.40;;;14.70;99.90;;;;;;5057404;28;20044;-66
2023/08/05 01:04:04;;;;;;;7.65;3.10;;;14.80;99.90;;;;;;5040219;28;20038;-67
2023/08/05 01:06:30;;;;;;;9.05;3.20;;;14.70;99.90;;;;;;5039162;28;20048;-67
2023/08/05 01:08:57;;;;;;;5.05;3.10;;;14.70;99.90;;;;;;5053358;28;20122;-66
2023/08/05 01:11:23;;;;;;;5.13;3.17;;;14.60;99.90;;;;;;5053027;28;20044;-66
2023/08/05 01:13:48;;;;;;;4.85;3.30;;;14.60;99.90;;;;;;5037907;28;20376;-67
2023/08/05 01:16:14;;;;;;;9.73;3.20;;;14.60;99.90;;;;;;5054062;28;20036;-66
2023/08/05 01:18:41;;;;;;;4.10;2.80;;;14.50;99.90;;;;;;5061643;28;20056;-66
2023/08/05 01:21:34;;;;;;;4.75;3.20;;;14.50;99.90;;;;;;5055412;28;20033;-66
2023/08/05 01:24:15;;;;;;;5.30;3.15;;;14.50;99.90;;;;;;5034026;28;20049;-67
2023/08/05 01:26:41;;;;;;;5.17;3.03;;;14.40;99.90;;;;;;5033759;28;20048;-67
2023/08/05 01:29:07;;;;;;;4.13;2.75;;;14.40;99.90;;;;;;5051120;28;20630;-67
2023/08/05 01:31:34;;;;;;;7.38;3.25;;;14.40;99.90;;;;;;5059112;28;20100;-66
2023/08/05 01:34:00;;;;;;;5.28;3.05;;;14.30;99.90;;;;;;5052497;28;20039;-67
2023/08/05 01:36:26;;;;;;;7.10;3.10;;;14.20;99.90;;;;;;5054085;28;20056;-66
2023/08/05 01:38:51;;;;;;;7.10;3.30;;;14.20;99.90;;;;;;5054159;28;20033;-66
2023/08/05 01:41:17;;;;;;;7.88;3.45;;;14.20;99.90;;;;;;5053110;28;20048;-66
2023/08/05 01:43:43;;;;;;;8.40;3.42;;;14.10;99.90;;;;;;5042655;28;20041;-66
2023/08/05 01:46:09;;;;;;;5.28;3.38;;;14.10;99.90;;;;;;5049990;28;20071;-66
2023/08/05 01:48:34;;;;;;;5.28;3.15;;;14.10;99.90;;;;;;5054699;28;20068;-67
2023/08/05 01:51:00;;;;;;;5.30;3.33;;;14.00;99.90;;;;;;5059735;28;20078;-67
2023/08/05 01:53:25;;;;;;;6.65;3.50;;;14.00;99.90;;;;;;5046051;28;20048;-66
2023/08/05 01:55:51;;;;;;;5.72;3.25;;;13.90;99.90;;;;;;5052040;28;20402;-66
2023/08/05 01:58:17;;;;;;;6.60;3.20;;;13.90;99.90;;;;;;5054103;28;20039;-66
2023/08/05 02:00:50;;;;;;;5.90;3.40;;;13.90;99.90;;;;;;5061106;28;20462;-67
2023/08/05 02:03:15;;;;;;;8.65;3.85;;;13.80;99.90;;;;;;5048170;28;20056;-66
2023/08/05 02:05:41;;;;;;;6.25;3.45;;;13.80;99.90;;;;;;5050126;28;20041;-67
2023/08/05 02:08:06;;;;;;;6.05;3.40;;;13.90;99.90;;;;;;5052697;28;20403;-66
2023/08/05 02:10:32;;;;;;;7.65;3.03;;;13.80;99.90;;;;;;5051268;28;20090;-67
2023/08/05 02:12:58;;;;;;;8.07;3.70;;;13.80;99.90;;;;;;5041604;28;20044;-67
2023/08/05 02:15:25;;;;;;;4.53;3.20;;;13.80;99.90;;;;;;5043662;28;20063;-66
2023/08/05 02:17:51;;;;;;;5.78;3.65;;;13.70;99.90;;;;;;5045108;28;20124;-67
2023/08/05 02:20:16;;;;;;;6.97;3.50;;;13.70;99.90;;;;;;5034636;28;20488;-67
2023/08/05 02:22:42;;;;;;;5.25;3.42;;;13.60;99.90;;;;;;5040886;28;20032;-67
2023/08/05 02:25:08;;;;;;;8.20;3.92;;;13.60;99.90;;;;;;5054438;28;20090;-67
2023/08/05 02:27:34;;;;;;;5.15;3.78;;;13.60;99.90;;;;;;5049438;28;20049;-66
2023/08/05 02:29:59;;;;;;;7.30;4.07;;;13.60;99.90;;;;;;5053083;28;20116;-66
2023/08/05 02:32:25;;;;;;;7.97;3.83;;;13.50;99.90;;;;;;5051927;28;20045;-67
2023/08/05 02:34:50;;;;;;;7.40;3.47;;;13.50;99.90;;;;;;5055865;28;20371;-66
2023/08/05 02:37:16;;;;;;;8.00;4.05;;;13.50;99.90;;;;;;5052478;28;20047;-67
2023/08/05 02:39:41;;;;;;;6.95;4.57;;;13.50;99.90;;;;;;5052791;28;20056;-67
2023/08/05 02:42:07;;;;;;;7.65;4.35;;;13.50;99.90;;;;;;5048880;28;20060;-67
2023/08/05 02:44:33;;;;;;;8.65;5.70;;;13.50;99.90;;;;;;5045098;28;20402;-67
2023/08/05 02:46:58;;;;;;;7.43;4.15;;;13.50;99.90;;;;;;5054885;28;20090;-67
2023/08/05 02:49:24;;;;;;;8.35;5.53;;;13.50;99.90;;;;;;5052608;28;20045;-67
2023/08/05 02:51:50;;;;;;;6.53;4.75;;;13.50;99.90;;;;;;5051424;28;20041;-67
2023/08/05 02:54:17;;;;;;;8.93;5.15;;;13.40;99.90;;;;;;5050228;28;20387;-66
2023/08/05 02:56:42;;;;;;;6.43;4.10;;;13.50;99.90;;;;;;5048220;28;20037;-67
2023/08/05 02:59:08;;;;;;;3.78;2.65;;;13.40;99.90;;;;;;5048440;28;20084;-66
2023/08/05 03:01:35;;;;;;;7.70;4.05;;;13.30;99.90;;;;;;5046802;28;20041;-67
2023/08/05 03:04:02;;;;;;;7.32;4.30;;;13.30;99.90;;;;;;5049432;28;20048;-66
2023/08/05 03:06:28;;;;;;;6.80;4.15;;;13.30;99.90;;;;;;5046162;28;20041;-67
2023/08/05 03:08:53;;;;;;;5.05;4.00;;;13.20;99.90;;;;;;5053448;28;20063;-66
2023/08/05 03:11:19;;;;;;;5.40;2.70;;;13.30;99.90;;;;;;5050860;28;20041;-66
2023/08/05 03:13:45;;;;;;;4.78;3.33;;;13.20;99.90;;;;;;5053442;28;20473;-67
2023/08/05 03:16:12;;;;;;;5.70;3.22;;;13.20;99.90;;;;;;5056492;28;20068;-66
2023/08/05 03:18:38;;;;;;;6.00;3.35;;;13.20;99.90;;;;;;5036885;28;20045;-66
2023/08/05 03:21:04;;;;;;;5.60;3.90;;;13.20;99.90;;;;;;5031096;28;20045;-67
2023/08/05 03:23:30;;;;;;;6.55;4.30;;;13.10;99.90;;;;;;5051242;28;20033;-66
2023/08/05 03:25:55;;;;;;;7.05;4.80;;;13.10;99.90;;;;;;5059041;28;20509;-66
2023/08/05 03:28:21;;;;;;;8.98;4.65;;;13.10;99.90;;;;;;5047415;28;20033;-66
2023/08/05 03:30:47;;;;;;;6.55;4.78;;;13.10;99.90;;;;;;5040005;28;20033;-67
2023/08/05 03:33:12;;;;;;;6.95;3.72;;;13.10;99.90;;;;;;5041794;28;20051;-67
2023/08/05 03:35:44;;;;;;;8.70;4.40;;;13.10;99.90;;;;;;5055863;28;20048;-66
2023/08/05 03:38:10;;;;;;;5.65;3.78;;;13.10;99.90;;;;;;5040443;28;20086;-67
2023/08/05 03:40:35;;;;;;;6.90;4.10;;;13.10;99.90;;;;;;5049525;28;20504;-66
2023/08/05 03:43:02;;;;;;;6.22;4.03;;;13.10;99.90;;;;;;5041269;28;20041;-66
2023/08/05 03:45:28;;;;;;;5.90;4.20;;;13.00;99.90;;;;;;5043738;28;20041;-66
2023/08/05 03:47:54;;;;;;;4.38;3.60;;;13.10;99.90;;;;;;5050258;28;20064;-67
2023/08/05 03:50:20;;;;;;;5.55;3.55;;;13.20;99.90;;;;;;5031752;28;20125;-67
2023/08/05 03:52:49;;;;;;;5.53;3.45;;;13.20;99.90;;;;;;5037406;28;20076;-66
2023/08/05 03:55:15;;;;;;;5.05;3.28;;;13.30;99.90;;;;;;5050746;28;20060;-67
2023/08/05 03:57:41;;;;;;;4.88;3.25;;;13.30;99.90;;;;;;5055425;28;20037;-66
2023/08/05 04:00:11;;;;;;;5.20;3.20;;;13.30;99.90;;;;;;5051324;28;20044;-66
2023/08/05 04:02:37;;;;;;;5.93;3.03;;;13.30;99.90;;;;;;5046148;28;20051;-66
2023/08/05 04:05:04;;;;;;;6.22;3.15;;;13.30;99.90;;;;;;5056383;28;20429;-66
2023/08/05 04:07:33;;;;;;;4.68;3.72;;;13.30;99.90;;;;;;5018084;28;20068;-67
2023/08/05 04:09:59;;;;;;;6.95;4.20;;;13.30;99.90;;;;;;5045319;28;20032;-67
2023/08/05 04:12:25;;;;;;;5.43;3.83;;;13.30;99.90;;;;;;5050091;28;20029;-67
2023/08/05 04:14:52;;;;;;;9.57;4.60;;;13.20;99.90;;;;;;5044479;28;20036;-66
2023/08/05 04:17:19;;;;;;;6.50;4.78;;;13.30;99.90;;;;;;5047619;28;20040;-66
2023/08/05 04:19:46;;;;;;;6.80;4.30;;;13.30;99.90;;;;;;5041710;28;20037;-66
2023/08/05 04:22:12;;;;;;;7.45;5.00;;;13.30;99.90;;;;;;5030992;28;20064;-66
2023/08/05 04:24:41;;;;;;;6.32;4.63;;;13.30;99.90;;;;;;5031062;28;20029;-66
2023/08/05 04:27:07;;;;;;;9.32;5.35;;;13.30;99.90;;;;;;5033010;28;20056;-67
2023/08/05 04:29:33;;;;;;;9.13;5.22;;;13.30;99.90;;;;;;5055432;28;20126;-67
2023/08/05 04:31:59;;;;;;;10.55;4.97;;;13.30;99.90;;;;;;5050126;28;20037;-67
2023/08/05 04:34:24;;;;;;;6.97;4.93;;;13.30;99.90;;;;;;5050524;28;20048;-66
2023/08/05 04:36:51;;;;;;;9.40;4.70;;;13.30;99.90;;;;;;5051829;28;20052;-67
2023/08/05 04:39:18;;;;;;;8.90;5.00;;;13.30;99.90;;;;;;5048598;28;20068;-67
2023/08/05 04:41:45;;;;;;;8.40;5.20;;;13.30;99.90;;;;;;5047110;28;20489;-67
2023/08/05 04:44:11;;;;;;;10.07;5.32;;;13.30;99.90;;;;;;5052185;28;20037;-67
2023/08/05 04:46:36;;;;;;;7.15;5.05;;;13.30;99.90;;;;;;5045385;28;20094;-67
2023/08/05 04:49:05;;;;;;;6.53;4.32;;;13.30;99.90;;;;;;5057939;28;20045;-66
2023/08/05 04:51:30;;;;;;;10.02;5.65;;;13.30;99.90;;;;;;5063658;28;20052;-67
2023/08/05 04:53:56;;;;;;;8.50;5.30;;;13.30;99.90;;;;;;5049353;28;20398;-67
2023/08/05 04:56:25;;;;;;;6.75;5.00;;;13.30;99.90;;;;;;5048990;28;20304;-66
2023/08/05 04:58:51;;;;;;;10.15;4.93;;;13.30;99.90;;;;;;5053025;28;20047;-66
2023/08/05 05:01:17;;;;;;;8.85;6.00;;;13.40;99.90;;;;;;5060820;28;20033;-67
2023/08/05 05:03:46;;;;;;;12.93;5.80;;;13.40;99.90;;;;;;5043600;28;20402;-67
2023/08/05 05:06:12;;;;;;;9.93;5.93;;;13.40;99.90;;;;;;5045898;28;20064;-66
2023/08/05 05:08:37;;;;;;;10.18;6.25;;;13.50;99.90;;;;;;5054747;28;20053;-67
2023/08/05 05:11:03;;;;;;;13.27;6.60;;;13.50;99.90;;;;;;5045152;28;20422;-66
2023/08/05 05:13:29;;;;;;;9.98;5.95;;;13.60;99.90;;;;;;5040964;28;20112;-67
2023/08/05 05:15:54;;;;;;;7.53;5.63;;;13.60;99.90;;;;;;5034179;28;20037;-66
2023/08/05 05:18:20;;;;;;;9.10;6.00;;;13.70;99.90;;;;;;5033394;28;20553;-66
2023/08/05 05:20:50;;;;;;;9.23;6.05;;;13.70;99.90;;;;;;5047563;28;20041;-66
2023/08/05 05:23:16;;;;;;;9.50;6.60;;;13.80;99.90;;;;;;5054355;28;20090;-67
2023/08/05 05:25:41;;;;;;;9.43;6.32;;;13.90;99.90;;;;;;5053062;28;20052;-67
2023/08/05 05:28:07;;;;;;;11.05;6.97;;;14.00;99.90;;;;;;5042118;28;20045;-66
2023/08/05 05:30:35;;;;;;;12.05;6.68;;;14.10;99.90;;;;;;5034669;28;20088;-66
2023/08/05 05:33:01;;;;;;;10.80;6.72;;;14.20;99.90;;;;;;5033142;28;20491;-66
2023/08/05 05:35:28;;;;;;;14.88;6.82;;;14.30;99.90;;;;;;5034030;28;20047;-67
2023/08/05 05:37:53;;;;;;;12.15;7.07;;;14.20;99.90;;;;;;5048194;28;20457;-67
2023/08/05 05:40:19;;;;;;;11.05;6.72;;;14.50;99.90;;;;;;5053701;28;20090;-67
2023/08/05 05:42:45;;;;;;;11.63;7.03;;;14.50;99.90;;;;;;5044707;28;20045;-66
2023/08/05 05:45:10;;;;;;;15.43;6.88;;;14.60;99.90;;;;;;5033223;28;20399;-67
2023/08/05 05:47:36;;;;;;;11.38;6.60;;;14.70;99.90;;;;;;5042460;28;20041;-66
2023/08/05 05:50:03;;;;;;;11.57;6.70;;;14.60;99.90;;;;;;5063762;28;20044;-66
2023/08/05 05:52:29;;;;;;;9.93;6.43;;;14.70;99.90;;;;;;5058486;28;20037;-66
2023/08/05 05:54:54;;;;;;;12.70;6.75;;;14.70;99.90;;;;;;5044081;28;20048;-67
2023/08/05 05:57:42;;;;;;;14.57;7.63;;;14.70;99.90;;;;;;5038789;28;20041;-67
2023/08/05 06:00:09;;;;;;;11.15;6.88;;;14.70;99.90;;;;;;5051218;28;20040;-67
2023/08/05 06:02:34;;;;;;;10.20;7.00;;;14.70;99.90;;;;;;5048113;28;20048;-67
2023/08/05 06:05:00;;;;;;;15.68;7.40;;;14.70;99.90;;;;;;5060079;28;20032;-67
2023/08/05 06:07:25;;;;;;;10.88;6.80;;;14.80;99.90;;;;;;5079705;22;20048;-64
2023/08/05 06:09:51;;;;;;;11.18;6.72;;;14.80;99.90;;;;;;5070853;28;20056;-64
2023/08/05 06:12:18;;;;;;;10.95;5.97;;;14.90;99.90;;;;;;5069607;28;20029;-63
2023/08/05 06:14:43;;;;;;;11.95;6.45;;;15.00;99.90;;;;;;5068134;28;20036;-64
2023/08/05 06:17:09;;;;;;;12.38;5.88;;;15.10;99.90;;;;;;5049949;28;20048;-64
2023/08/05 06:19:35;;;;;;;10.73;5.68;;;15.20;99.90;;;;;;5038704;28;20124;-64
2023/08/05 06:22:00;;;;;;;12.25;6.10;;;15.30;99.90;;;;;;5040413;28;20043;-64
2023/08/05 06:24:26;;;;;;;10.50;5.75;;;15.40;99.90;;;;;;5052909;28;20044;-64
2023/08/05 06:26:51;;;;;;;10.45;6.13;;;15.40;99.90;;;;;;5043811;28;20042;-64
2023/08/05 06:29:17;;;;;;;12.48;6.05;;;15.50;99.90;;;;;;5047231;28;20119;-64
2023/08/05 06:31:42;;;;;;;9.38;5.68;;;15.60;99.90;;;;;;5042378;28;20449;-64
2023/08/05 06:34:08;;;;;;;8.30;5.38;;;15.60;99.90;;;;;;5043993;28;20080;-64
2023/08/05 06:36:34;;;;;;;10.00;5.65;;;15.70;99.90;;;;;;5043658;28;20072;-64
2023/08/05 06:38:59;;;;;;;7.85;5.10;;;15.70;99.90;;;;;;5039237;28;20032;-64
2023/08/05 06:41:25;;;;;;;6.97;4.82;;;15.80;99.90;;;;;;5040601;28;20029;-64
2023/08/05 06:43:51;;;;;;;7.30;4.70;;;15.90;99.90;;;;;;5040815;28;20036;-64
2023/08/05 06:46:16;;;;;;;8.00;4.90;;;16.00;99.90;;;;;;5048892;28;20037;-64
2023/08/05 06:48:42;;;;;;;6.93;4.50;;;16.00;99.90;;;;;;5045141;28;20132;-64
2023/08/05 06:51:07;;;;;;;7.78;4.35;;;16.10;99.90;;;;;;5038991;28;20056;-64
2023/08/05 06:53:34;;;;;;;9.15;4.57;;;16.10;99.90;;;;;;5038012;28;20050;-64
2023/08/05 06:56:01;;;;;;;5.53;3.85;;;16.00;99.90;;;;;;5038810;28;20045;-64
2023/08/05 06:58:27;;;;;;;8.95;4.80;;;16.00;99.90;;;;;;5050327;28;20045;-64
2023/08/05 07:00:53;;;;;;;8.95;4.75;;;16.00;99.90;;;;;;5033125;28;20098;-64
2023/08/05 07:03:18;;;;;;;8.50;4.78;;;16.00;99.90;;;;;;5044078;28;20037;-64
2023/08/05 07:05:44;;;;;;;11.77;5.40;;;16.00;99.90;;;;;;5042179;28;20475;-64
2023/08/05 07:08:10;;;;;;;11.25;5.15;;;16.00;99.90;;;;;;5048278;28;20048;-64
2023/08/05 07:10:36;;;;;;;6.82;4.57;;;16.00;99.90;;;;;;5036550;28;20380;-64
2023/08/05 07:13:05;;;;;;;8.80;4.28;;;16.10;99.90;;;;;;5036898;28;20095;-64
2023/08/05 07:15:34;;;;;;;8.00;4.97;;;16.10;99.90;;;;;;5045878;28;20128;-64
2023/08/05 07:18:00;;;;;;;7.78;4.47;;;16.10;99.90;;;;;;5050083;28;20055;-64
2023/08/05 07:20:26;;;;;;;9.80;4.85;;;16.10;99.90;;;;;;5047703;28;20132;-64
2023/08/05 07:22:51;;;;;;;8.38;4.25;;;16.20;99.90;;;;;;5048651;28;20032;-64
2023/08/05 07:25:17;;;;;;;8.32;4.10;;;16.20;99.90;;;;;;5031290;28;20060;-64
2023/08/05 07:27:43;;;;;;;10.20;4.78;;;16.30;99.90;;;;;;5032211;28;20252;-64
2023/08/05 07:30:09;;;;;;;8.85;4.85;;;16.40;99.90;;;;;;5046830;28;20047;-64
2023/08/05 07:32:34;;;;;;;7.25;4.00;;;16.60;99.90;;;;;;5039324;28;20041;-64
2023/08/05 07:35:00;;;;;;;6.43;3.80;;;16.70;99.90;;;;;;5044758;28;20044;-64
2023/08/05 07:37:26;;;;;;;6.55;4.18;;;16.80;99.90;;;;;;5048501;28;20041;-64
2023/08/05 07:39:52;;;;;;;6.68;3.53;;;16.90;99.90;;;;;;5051749;28;20037;-64
2023/08/05 07:42:20;;;;;;;8.88;4.55;;;17.00;99.90;;;;;;5051587;28;20041;-64
2023/08/05 07:44:46;;;;;;;8.48;4.07;;;17.00;99.90;;;;;;5042727;28;20116;-64
2023/08/05 07:47:12;;;;;;;6.07;3.60;;;17.20;99.90;;;;;;5047445;28;20064;-64
2023/08/05 07:49:38;;;;;;;8.55;3.47;;;17.30;99.90;;;;;;5045840;28;20061;-64
2023/08/05 07:52:06;;;;;;;5.88;3.70;;;17.40;99.90;;;;;;5040040;28;20495;-64
2023/08/05 07:54:32;;;;;;;8.73;4.13;;;17.60;99.90;;;;;;5044095;28;20041;-64
2023/08/05 07:56:58;;;;;;;6.20;3.60;;;17.60;99.90;;;;;;5051134;28;20041;-64
2023/08/05 07:59:25;;;;;;;7.22;3.42;;;17.70;99.90;;;;;;5048064;28;20048;-64
2023/08/05 08:01:53;;;;;;;8.23;3.67;;;17.70;99.90;;;;;;5048031;28;20042;-64
2023/08/05 08:04:18;;;;;;;4.80;3.00;;;17.80;99.90;;;;;;5041005;28;20033;-64
2023/08/05 08:06:47;;;;;;;7.00;3.85;;;17.80;99.90;;;;;;5043847;28;20098;-64
2023/08/05 08:09:13;;;;;;;6.90;3.35;;;17.80;99.90;;;;;;5046893;28;20041;-64
2023/08/05 08:11:40;;;;;;;6.43;3.10;;;17.80;99.90;;;;;;5041795;28;20045;-64
2023/08/05 08:14:05;;;;;;;5.28;3.33;;;17.70;99.90;;;;;;5043603;28;20059;-64
2023/08/05 08:16:32;;;;;;;6.40;3.08;;;17.80;99.90;;;;;;5033933;28;20037;-64
2023/08/05 08:18:57;;;;;;;7.07;3.42;;;17.80;99.90;;;;;;5031154;28;20033;-64
2023/08/05 08:21:23;;;;;;;7.22;3.20;;;17.80;99.90;;;;;;5042308;28;20034;-65
2023/08/05 08:23:48;;;;;;;7.65;3.30;;;17.70;99.90;;;;;;5051162;28;20395;-64
2023/08/05 08:26:14;;;;;;;6.63;3.00;;;17.80;99.90;;;;;;5044913;28;20045;-64
2023/08/05 08:28:40;;;;;;;6.13;2.83;;;17.90;99.90;;;;;;5040601;28;20045;-64
2023/08/05 08:31:05;;;;;;;6.15;2.95;;;18.10;99.90;;;;;;5035537;28;20061;-64
2023/08/05 08:33:31;;;;;;;7.07;2.90;;;18.20;99.90;;;;;;5037860;28;20044;-64
2023/08/05 08:35:57;;;;;;;2.95;2.20;;;18.20;99.90;;;;;;5049800;28;20103;-64
2023/08/05 08:38:22;;;;;;;3.33;2.33;;;18.20;99.90;;;;;;5034816;28;20406;-65
2023/08/05 08:40:49;;;;;;;5.82;2.60;;;18.20;99.90;;;;;;5039923;28;20431;-64
2023/08/05 08:43:18;;;;;;;3.58;2.55;;;18.30;99.90;;;;;;5046082;28;20447;-65
2023/08/05 08:45:46;;;;;;;5.53;2.40;;;18.30;99.90;;;;;;5046555;28;20072;-64
2023/08/05 08:48:12;;;;;;;3.97;1.85;;;18.40;99.90;;;;;;5048512;28;20434;-64
2023/08/05 08:50:40;;;;;;;3.47;2.03;;;18.50;99.90;;;;;;5048001;28;20045;-64
2023/08/05 08:53:08;;;;;;;3.45;2.35;;;18.50;99.90;;;;;;5044250;28;20120;-64
2023/08/05 08:55:35;;;;;;;6.07;2.35;;;18.60;99.90;;;;;;5040771;28;20041;-64
2023/08/05 08:58:01;;;;;;;4.80;2.30;;;18.60;99.90;;;;;;5052918;28;20405;-64
2023/08/05 09:00:27;;;;;;;3.42;2.13;;;18.70;99.90;;;;;;5045171;28;20041;-64
2023/08/05 09:02:53;;;;;;;3.72;2.28;;;18.70;99.90;;;;;;5047263;28;20103;-65
2023/08/05 09:05:20;;;;;;;5.30;2.38;;;18.90;99.90;;;;;;5045849;28;20037;-65
2023/08/05 09:07:49;;;;;;;4.47;2.30;;;19.10;99.90;;;;;;5045486;28;20502;-64
2023/08/05 09:10:15;;;;;;;4.47;2.33;;;19.20;99.90;;;;;;5047232;28;20083;-64
2023/08/05 09:12:41;;;;;;;5.20;2.30;;;19.30;99.90;;;;;;5046545;28;20033;-64
2023/08/05 09:15:07;;;;;;;4.35;2.30;;;19.30;99.90;;;;;;5045377;28;20037;-65
2023/08/05 09:17:39;;;;;;;5.70;2.28;;;19.30;99.90;;;;;;5050913;28;20044;-64
2023/08/05 09:20:22;;;;;;;4.20;2.60;;;19.40;99.90;;;;;;5054701;28;20099;-65
2023/08/05 09:22:55;;;;;;;2.90;2.03;;;19.40;99.90;;;;;;5042144;28;20513;-64
2023/08/05 09:25:22;;;;;;;4.00;2.22;;;19.30;99.90;;;;;;5051346;28;20090;-65
2023/08/05 09:27:48;;;;;;;2.53;2.20;;;19.30;99.90;;;;;;5050725;28;20119;-65
2023/08/05 09:30:17;;;;;;;3.40;2.10;;;19.30;99.90;;;;;;5049485;28;20459;-64
2023/08/05 09:32:45;;;;;;;5.65;2.22;;;19.30;99.90;;;;;;5041319;28;20563;-64
2023/08/05 09:35:11;;;;;;;3.97;1.85;;;19.40;99.90;;;;;;5050522;28;20037;-64
2023/08/05 09:37:40;;;;;;;3.88;1.88;;;19.40;99.90;;;;;;5048493;28;20154;-64
2023/08/05 09:40:41;;;;;;;3.95;1.95;;;19.40;99.90;;;;;;5043929;28;20049;-64
2023/08/05 09:43:08;;;;;;;4.00;2.30;;;19.40;99.90;;;;;;5040701;28;20044;-64
2023/08/05 09:45:33;;;;;;;4.97;2.13;;;19.50;99.90;;;;;;5048274;28;20076;-64
2023/08/05 09:48:08;;;;;;;3.20;2.17;;;19.50;99.90;;;;;;5044829;28;20063;-64
2023/08/05 09:50:37;;;;;;;3.58;2.20;;;19.50;99.90;;;;;;5041661;28;20513;-64
2023/08/05 09:53:08;;;;;;;5.20;2.30;;;19.50;99.90;;;;;;5034871;28;20542;-64
2023/08/05 09:55:34;;;;;;;;;;;19.50;99.90;;;;;;5050537;28;20429;-64
2023/08/05 09:58:00;;;;;;;2.25;1.90;;;19.50;99.90;;;;;;5050210;28;19921;-64
2023/08/05 10:00:28;;;;;;;4.30;2.20;;;19.50;99.90;;;;;;5040958;28;20112;-64
2023/08/05 10:02:54;;;;;;;3.97;2.33;;;19.50;99.90;;;;;;5038273;28;20047;-64
2023/08/05 10:05:24;;;;;;;4.47;2.53;;;19.60;99.90;;;;;;5052220;28;20037;-64
2023/08/05 10:07:53;;;;;;;5.13;2.45;;;19.60;99.90;;;;;;5036286;28;20042;-64
2023/08/05 10:10:21;;;;;;;4.80;2.88;;;19.60;99.90;;;;;;5043301;28;20099;-64
2023/08/05 10:13:08;;;;;;;3.63;2.55;;;19.60;99.90;;;;;;5043665;28;20560;-64
2023/08/05 10:15:37;;;;;;;5.38;3.00;;;19.70;99.90;;;;;;5041632;28;20072;-64
2023/08/05 10:18:08;;;;;;;6.22;2.85;;;19.90;99.90;;;;;;5043539;28;20044;-64
2023/08/05 10:20:38;;;;;;;5.28;2.67;;;19.90;99.90;;;;;;5048941;28;20136;-64
2023/08/05 10:23:05;;;;;;;6.03;3.20;;;19.80;99.90;;;;;;5034410;28;20049;-64
2023/08/05 10:25:43;;;;;;;5.35;3.70;;;19.90;99.90;;;;;;5033628;28;20037;-64
2023/08/05 10:28:30;;;;;;;4.43;3.25;;;20.00;99.90;;;;;;5039415;28;20056;-64
2023/08/05 10:30:56;;;;;;;4.93;3.30;;;20.20;99.90;;;;;;5038156;28;20041;-65
2023/08/05 10:33:22;;;;;;;5.70;3.70;;;20.20;99.90;;;;;;5042649;28;20052;-64
2023/08/05 10:35:49;;;;;;;5.47;3.42;;;20.10;99.90;;;;;;5049012;28;20407;-65
2023/08/05 10:38:21;;;;;;;4.75;3.00;;;20.10;99.90;;;;;;5036251;28;20060;-64
2023/08/05 10:40:51;;;;;;;9.00;3.53;;;20.00;99.90;;;;;;5053165;28;20125;-65
2023/08/05 10:43:35;;;;;;;4.53;2.97;;;20.10;99.90;;;;;;5048210;28;20040;-65
2023/08/05 10:46:06;;;;;;;4.00;2.47;;;20.20;99.90;;;;;;5046722;28;20539;-65
2023/08/05 10:48:35;;;;;;;4.60;3.10;;;20.30;99.90;;;;;;5040990;28;20399;-64
2023/08/05 10:51:16;;;;;;;6.78;3.22;;;20.50;99.90;;;;;;5038432;28;20037;-65
2023/08/05 10:53:59;;;;;;;3.92;2.97;;;20.80;99.90;;;;;;5050885;28;20033;-65
2023/08/05 10:56:35;;;;;;;5.00;3.28;;;20.90;99.90;;;;;;5037504;28;20419;-64
2023/08/05 10:59:02;;;;;;;5.63;3.80;;;21.00;99.90;;;;;;5037331;28;20034;-64
2023/08/05 11:01:52;;;;;;;7.28;3.83;;;21.00;99.90;;;;;;5060301;28;20038;-65
2023/08/05 11:04:28;;;;;;;7.13;4.70;;;21.00;99.90;;;;;;5045857;28;20037;-64
2023/08/05 11:06:54;;;;;;;8.02;5.38;;;21.10;99.90;;;;;;5051744;28;20044;-64
2023/08/05 11:09:21;;;;;;;8.20;5.30;;;21.20;99.90;;;;;;5047710;28;20066;-64
2023/08/05 11:11:48;;;;;;;8.23;5.28;;;21.30;99.90;;;;;;5048055;28;20052;-64
2023/08/05 11:14:16;;;;;;;8.88;5.57;;;21.40;99.90;;;;;;5034209;28;20076;-64
2023/08/05 11:16:46;;;;;;;9.57;6.03;;;21.30;99.90;;;;;;5044990;28;20446;-64
2023/08/05 11:19:12;;;;;;;8.57;5.85;;;21.30;99.90;;;;;;5051984;28;20045;-64
2023/08/05 11:21:38;;;;;;;9.88;6.53;;;21.20;99.90;;;;;;5043236;28;20115;-64
2023/08/05 11:24:04;;;;;;;10.07;7.57;;;21.00;99.90;;;;;;5042986;28;20041;-65
2023/08/05 11:26:30;;;;;;;11.60;8.40;;;20.90;99.90;;;;;;5051511;28;20045;-64
2023/08/05 11:29:00;;;;;;;8.77;7.38;;;20.80;99.90;;;;;;5047704;28;20123;-64
2023/08/05 11:31:27;;;;;;;12.25;7.78;;;20.80;99.90;;;;;;5040682;28;20041;-65
2023/08/05 11:33:54;;;;;;;11.38;7.70;;;20.90;99.90;;;;;;5041565;28;20538;-65
2023/08/05 11:36:25;;;;;;;12.30;7.75;;;21.00;99.90;;;;;;5037740;28;22004;-65
2023/08/05 11:38:51;;;;;;;12.07;8.73;;;21.10;99.90;;;;;;5035807;28;20032;-64
2023/08/05 11:41:16;;;;;;;11.48;7.78;;;21.10;99.90;;;;;;5035975;28;20376;-65
2023/08/05 11:43:42;;;;;;;10.68;7.45;;;21.10;99.90;;;;;;5033562;28;20037;-64
2023/08/05 11:46:26;;;;;;;12.48;8.90;;;21.00;99.90;;;;;;5034328;28;20041;-65
2023/08/05 11:49:12;;;;;;;13.65;9.50;;;20.90;99.90;;;;;;5040245;28;20037;-65
2023/08/05 11:51:49;;;;;;;14.05;10.55;;;20.80;99.90;;;;;;5031854;28;20479;-65
2023/08/05 11:54:32;;;;;;;14.35;10.32;;;20.60;99.90;;;;;;5042096;28;20033;-65
2023/08/05 11:56:58;;;;;;;15.80;11.63;;;20.60;99.90;;;;;;5038055;28;20069;-65
2023/08/05 12:00:04;;;;;;;17.48;11.80;;;20.50;99.90;;;;;;5038216;28;20452;-65
2023/08/05 12:02:34;;;;;;;15.95;11.45;;;20.40;99.90;;;;;;5005583;28;20049;-65
2023/08/05 12:05:00;;;;;;;16.65;11.80;;;20.30;99.90;;;;;;5039115;28;20041;-65
2023/08/05 12:07:26;;;;;;;14.43;11.60;;;20.30;99.90;;;;;;5046371;22;20029;-66
2023/08/05 12:10:07;;;;;;;17.30;12.75;;;20.30;99.90;;;;;;5030723;28;20387;-67
2023/08/05 12:12:33;;;;;;;15.30;12.70;;;20.20;99.90;;;;;;5025761;28;20065;-66
2023/08/05 12:15:26;;;;;;;17.42;12.35;;;20.20;99.90;;;;;;5024047;28;20048;-66
2023/08/05 12:17:54;;;;;;;15.27;12.35;;;20.20;99.90;;;;;;5029756;28;20495;-67
2023/08/05 12:20:36;;;;;;;16.27;11.77;;;20.10;99.90;;;;;;5014577;28;20036;-66
2023/08/05 12:23:03;;;;;;;15.77;11.10;;;20.10;99.90;;;;;;5011779;28;20038;-67
2023/08/05 12:25:30;;;;;;;12.90;11.30;;;20.20;99.90;;;;;;5013252;28;20041;-67
2023/08/05 12:27:57;;;;;;;15.43;11.70;;;20.30;99.90;;;;;;5014128;28;20044;-67
2023/08/05 12:30:23;;;;;;;16.60;12.63;;;20.40;99.90;;;;;;5011612;28;20042;-67
2023/08/05 12:32:48;;;;;;;15.15;11.68;;;20.60;99.90;;;;;;5009751;28;20096;-67
2023/08/05 12:35:14;;;;;;;15.68;11.95;;;20.70;99.90;;;;;;5008572;28;20037;-67
2023/08/05 12:37:41;;;;;;;15.35;11.50;;;20.90;99.90;;;;;;5008969;28;20050;-67
2023/08/05 12:40:09;;;;;;;12.38;10.20;;;21.00;99.90;;;;;;5008762;28;20160;-66
2023/08/05 12:42:35;;;;;;;14.32;10.73;;;21.10;99.90;;;;;;5007642;28;20439;-67
2023/08/05 12:45:03;;;;;;;12.65;11.10;;;21.00;99.90;;;;;;5018089;28;20041;-67
2023/08/05 12:47:29;;;;;;;15.93;12.38;;;21.00;99.90;;;;;;5010701;28;20042;-67